Portada
METAR-TAF:

METAR-TAF

Aeroports :

Txengdu, Xina

latitud: 30-40N, longitud: 104-01E, altitud: 508 m

Observació

L'informe es va fer fa 1 hora i 2 minuts, a les 07:00 UTC
Vent 4 kt del Oest, variant entre Sud-Oest i Nord-Oest
Temperatura 23°C
Humitat 69%
Pressió 1015 hPa
Visibilitat 10 km o més
Núvols disperses a una alçada de 3000 ft

METAR: ZUUU 220700Z 26002MPS 230V310 9999 SCT030 23/17 Q1015 NOSIG

Hora: 16:02 (08:02 UTC)

Pronòstic

L'informe es va fer fa 5 hores i 1 minuts, a les 03:01 UTC
Pronòstic vàlid del 22 a les 06 UTC al 23 a les 06 UTC
Vent 6 kt del Sud/Sud-Oest
Visibilitat: 6000 m
Núvols disperses a una alçada de 5000 ft

TAF: ZUUU 220301Z 2206/2306 20003MPS 6000 SCT050 TX24/2207Z TN18/2222Z

Observacions i pronòstics meteorològics de més de 4000 aeroports (METAR i TAF).

Les estacions disponibles són els punts grocs i vermells al mapa.

Posi el ratolí al punt desitjat per veure el nom de l'estació.

Feu clic per veure les observacions i els pronòstics meteorològics.

Per canviar el mapa: feu clic els botons verds amb una creu de color negre per apropar; al botó verd amb un guió per allunyar la imatge; o en les fletxes verdes per a mapes adjacents.


METAR-TAF: